Time;durP1;ratioP1;P1;durP2;ratioP2;P2;SDS_P1;SDS_P2;PMS_P1;PMS_P2;Temp;Humidity;BMP_temperature;BMP_pressure;BME280_temperature;BME280_humidity;BME280_pressure;Samples;Min_cycle;Max_cycle;Signal;HPM_P1;HPM_P2
2023/01/07 00:00:16;;;;;;;2.33;1.40;;;;;;;;;;5030328;28;20119;-78
2023/01/07 00:02:43;;;;;;;1.70;1.23;;;;;;;;;;5026811;28;20136;-78
2023/01/07 00:05:09;;;;;;;2.22;1.30;;;;;;;;;;5030136;28;20053;-76
2023/01/07 00:07:36;;;;;;;2.53;1.40;;;;;;;;;;5029954;28;20111;-77
2023/01/07 00:10:02;;;;;;;2.90;1.13;;;;;;;;;;5009435;28;20137;-78
2023/01/07 00:12:29;;;;;;;1.70;1.20;;;;;;;;;;5028005;28;20165;-78
2023/01/07 00:14:55;;;;;;;1.55;1.08;;;;;;;;;;5028351;28;20514;-77
2023/01/07 00:17:22;;;;;;;3.25;1.25;;;;;;;;;;5029573;28;20077;-78
2023/01/07 00:19:48;;;;;;;2.78;1.10;;;;;;;;;;5010859;28;20046;-77
2023/01/07 00:22:15;;;;;;;1.70;1.20;;;;;;;;;;5026775;28;20487;-76
2023/01/07 00:24:41;;;;;;;2.85;1.17;;;;;;;;;;5026288;28;20061;-78
2023/01/07 00:27:07;;;;;;;1.95;1.02;;;;;;;;;;5019374;28;20053;-78
2023/01/07 00:29:34;;;;;;;1.67;1.10;;;;;;;;;;5028025;28;20045;-77
2023/01/07 00:32:00;;;;;;;3.38;1.02;;;;;;;;;;5028130;28;20087;-77
2023/01/07 00:34:27;;;;;;;3.50;1.17;;;;;;;;;;5029420;28;20049;-78
2023/01/07 00:37:48;;;;;;;3.03;1.10;;;;;;;;;;5029011;28;20067;-79
2023/01/07 00:39:39;;;;;;;3.05;0.90;;;;;;;;;;5023150;28;20049;-78
2023/01/07 00:44:52;;;;;;;1.90;1.15;;;;;;;;;;5027926;28;20104;-78
2023/01/07 00:47:18;;;;;;;1.77;1.10;;;;;;;;;;5027400;28;20072;-78
2023/01/07 00:49:45;;;;;;;3.25;1.10;;;;;;;;;;5037743;28;20473;-75
2023/01/07 00:52:12;;;;;;;2.85;1.20;;;;;;;;;;5027319;28;20053;-78
2023/01/07 00:54:38;;;;;;;1.67;1.00;;;;;;;;;;5029532;28;20053;-77
2023/01/07 00:57:05;;;;;;;3.05;1.20;;;;;;;;;;5022294;28;20050;-78
2023/01/07 00:59:31;;;;;;;2.83;0.98;;;;;;;;;;5028740;28;20049;-77
2023/01/07 01:01:57;;;;;;;1.13;0.77;;;;;;;;;;5018433;28;20050;-77
2023/01/07 01:04:24;;;;;;;1.33;0.80;;;;;;;;;;5006708;28;20087;-78
2023/01/07 01:06:50;;;;;;;1.55;1.00;;;;;;;;;;5025939;28;20139;-76
2023/01/07 01:09:19;;;;;;;1.75;0.90;;;;;;;;;;5017703;28;20400;-77
2023/01/07 01:11:45;;;;;;;1.83;1.13;;;;;;;;;;5046681;28;20085;-74
2023/01/07 01:14:12;;;;;;;1.70;1.20;;;;;;;;;;5020684;28;20054;-78
2023/01/07 01:16:38;;;;;;;1.80;1.13;;;;;;;;;;5008287;28;20170;-77
2023/01/07 01:19:05;;;;;;;3.05;1.00;;;;;;;;;;5019749;28;20288;-77
2023/01/07 01:21:31;;;;;;;3.20;1.10;;;;;;;;;;5005624;28;20292;-76
2023/01/07 01:23:58;;;;;;;3.42;1.00;;;;;;;;;;5019988;28;20057;-77
2023/01/07 01:26:24;;;;;;;3.83;1.20;;;;;;;;;;5026063;28;20056;-76
2023/01/07 01:28:51;;;;;;;1.35;0.95;;;;;;;;;;5008816;28;20053;-77
2023/01/07 01:31:17;;;;;;;1.50;1.15;;;;;;;;;;5027301;28;20137;-75
2023/01/07 01:33:44;;;;;;;1.52;1.00;;;;;;;;;;5003216;28;20050;-78
2023/01/07 01:36:11;;;;;;;1.60;1.35;;;;;;;;;;5007294;28;20046;-78
2023/01/07 01:38:38;;;;;;;1.42;1.00;;;;;;;;;;5016690;28;20056;-76
2023/01/07 01:41:05;;;;;;;1.20;1.02;;;;;;;;;;4987689;28;20060;-77
2023/01/07 01:43:33;;;;;;;2.00;1.05;;;;;;;;;;5014086;28;20061;-76
2023/01/07 01:46:02;;;;;;;1.98;1.30;;;;;;;;;;4999429;28;20064;-78
2023/01/07 01:48:29;;;;;;;2.22;1.30;;;;;;;;;;5026802;28;20426;-77
2023/01/07 01:50:55;;;;;;;2.03;1.15;;;;;;;;;;5028533;28;20144;-77
2023/01/07 01:53:24;;;;;;;2.92;1.48;;;;;;;;;;5018512;28;20494;-79
2023/01/07 01:56:13;;;;;;;1.65;1.20;;;;;;;;;;5032203;28;20133;-78
2023/01/07 01:58:42;;;;;;;2.25;1.20;;;;;;;;;;5012856;28;20049;-77
2023/01/07 02:01:08;;;;;;;2.72;1.50;;;;;;;;;;5028233;28;20141;-77
2023/01/07 02:03:36;;;;;;;1.92;1.20;;;;;;;;;;5022503;28;20057;-76
2023/01/07 02:06:03;;;;;;;1.67;1.10;;;;;;;;;;5026083;28;20068;-76
2023/01/07 02:08:29;;;;;;;2.22;1.35;;;;;;;;;;5026950;28;20053;-77
2023/01/07 02:11:16;;;;;;;2.38;1.30;;;;;;;;;;5003357;28;20143;-78
2023/01/07 02:13:54;;;;;;;2.58;1.50;;;;;;;;;;4993618;28;20049;-77
2023/01/07 02:16:21;;;;;;;1.52;1.20;;;;;;;;;;5026377;28;20421;-77
2023/01/07 02:19:00;;;;;;;1.95;1.25;;;;;;;;;;5017233;28;20072;-77
2023/01/07 02:21:45;;;;;;;1.70;1.20;;;;;;;;;;5025937;28;20080;-78
2023/01/07 02:24:30;;;;;;;1.75;1.20;;;;;;;;;;5016305;28;20054;-77
2023/01/07 02:27:15;;;;;;;2.70;1.60;;;;;;;;;;5007110;28;20061;-78
2023/01/07 02:30:07;;;;;;;1.83;1.33;;;;;;;;;;5011533;28;20075;-77
2023/01/07 02:32:52;;;;;;;2.10;1.23;;;;;;;;;;5005315;28;20315;-78
2023/01/07 02:35:19;;;;;;;1.80;1.30;;;;;;;;;;5017128;28;20446;-76
2023/01/07 02:37:51;;;;;;;1.95;1.25;;;;;;;;;;5027338;28;20299;-77
2023/01/07 02:40:33;;;;;;;1.35;0.98;;;;;;;;;;5024351;28;20155;-76
2023/01/07 02:43:10;;;;;;;1.90;1.23;;;;;;;;;;5024701;28;20072;-78
2023/01/07 02:45:44;;;;;;;1.70;1.25;;;;;;;;;;5026276;28;20151;-77
2023/01/07 02:48:13;;;;;;;3.08;1.20;;;;;;;;;;5009412;28;20137;-78
2023/01/07 02:50:39;;;;;;;4.03;1.20;;;;;;;;;;5024738;28;20073;-78
2023/01/07 02:53:06;;;;;;;2.53;1.30;;;;;;;;;;5029636;28;20059;-78
2023/01/07 02:55:53;;;;;;;1.35;1.05;;;;;;;;;;5029401;28;20051;-77
2023/01/07 02:58:38;;;;;;;1.75;0.90;;;;;;;;;;4975280;28;20113;-76
2023/01/07 03:01:24;;;;;;;3.07;1.30;;;;;;;;;;5030760;28;20079;-77
2023/01/07 03:04:00;;;;;;;1.45;0.90;;;;;;;;;;5025977;28;20046;-77
2023/01/07 03:06:49;;;;;;;1.02;0.90;;;;;;;;;;5009171;28;20115;-76
2023/01/07 03:09:21;;;;;;;1.40;1.00;;;;;;;;;;4994111;28;20065;-76
2023/01/07 03:11:53;;;;;;;1.73;1.08;;;;;;;;;;5035761;28;20052;-77
2023/01/07 03:14:25;;;;;;;1.30;0.98;;;;;;;;;;5031391;28;20053;-75
2023/01/07 03:16:53;;;;;;;1.85;1.20;;;;;;;;;;5029931;28;20049;-77
2023/01/07 03:19:34;;;;;;;4.72;1.15;;;;;;;;;;5029630;28;20049;-77
2023/01/07 03:22:03;;;;;;;2.90;1.00;;;;;;;;;;5028398;28;20529;-76
2023/01/07 03:24:30;;;;;;;1.92;0.95;;;;;;;;;;5028917;28;20085;-78
2023/01/07 03:26:57;;;;;;;2.83;1.00;;;;;;;;;;5011510;28;20053;-76
2023/01/07 03:29:23;;;;;;;1.35;1.10;;;;;;;;;;5029612;28;20136;-77
2023/01/07 03:31:54;;;;;;;2.13;1.10;;;;;;;;;;5030766;28;20064;-76
2023/01/07 03:34:23;;;;;;;1.77;1.20;;;;;;;;;;5024245;28;20423;-76
2023/01/07 03:36:53;;;;;;;1.65;0.98;;;;;;;;;;5010805;28;20125;-78
2023/01/07 03:39:21;;;;;;;1.33;0.93;;;;;;;;;;5020355;28;20049;-77
2023/01/07 03:44:33;;;;;;;1.30;0.82;;;;;;;;;;5027938;28;20056;-77
2023/01/07 03:47:00;;;;;;;1.55;1.08;;;;;;;;;;5012396;28;20053;-77
2023/01/07 03:49:27;;;;;;;1.73;1.10;;;;;;;;;;5029571;28;20363;-77
2023/01/07 03:51:53;;;;;;;1.30;1.00;;;;;;;;;;5026886;28;20056;-77
2023/01/07 03:54:20;;;;;;;1.88;1.20;;;;;;;;;;5028029;28;20095;-77
2023/01/07 03:56:46;;;;;;;3.92;1.10;;;;;;;;;;5010240;28;20053;-78
2023/01/07 03:59:13;;;;;;;1.40;0.93;;;;;;;;;;5005159;28;20443;-77
2023/01/07 04:01:39;;;;;;;1.27;0.95;;;;;;;;;;5008441;28;20054;-74
2023/01/07 04:04:06;;;;;;;1.33;0.90;;;;;;;;;;4995306;28;20464;-77
2023/01/07 04:06:32;;;;;;;1.70;1.10;;;;;;;;;;5026541;28;20111;-77
2023/01/07 04:08:59;;;;;;;1.65;1.02;;;;;;;;;;5028799;28;20117;-77
2023/01/07 04:11:25;;;;;;;1.17;0.90;;;;;;;;;;5022256;28;20054;-77
2023/01/07 04:13:52;;;;;;;1.27;1.00;;;;;;;;;;5010052;28;20049;-77
2023/01/07 04:16:18;;;;;;;2.13;1.00;;;;;;;;;;5028494;28;20223;-77
2023/01/07 04:18:45;;;;;;;2.17;1.00;;;;;;;;;;5019502;28;20053;-78
2023/01/07 04:21:11;;;;;;;1.88;1.20;;;;;;;;;;5012207;28;20630;-77
2023/01/07 04:23:38;;;;;;;1.50;1.00;;;;;;;;;;5026337;28;20137;-78
2023/01/07 04:26:05;;;;;;;1.60;1.10;;;;;;;;;;5030828;28;20061;-77
2023/01/07 04:28:31;;;;;;;1.33;0.93;;;;;;;;;;5032562;28;20423;-78
2023/01/07 04:30:58;;;;;;;1.48;1.08;;;;;;;;;;5011855;28;20042;-78
2023/01/07 04:33:25;;;;;;;3.15;1.15;;;;;;;;;;5010195;28;20045;-78
2023/01/07 04:35:51;;;;;;;2.08;1.10;;;;;;;;;;5009848;28;20746;-78
2023/01/07 04:38:18;;;;;;;1.50;1.05;;;;;;;;;;5027622;28;20060;-77
2023/01/07 04:40:44;;;;;;;1.30;0.88;;;;;;;;;;5026952;28;20506;-77
2023/01/07 04:43:10;;;;;;;1.15;0.90;;;;;;;;;;5011026;28;20484;-77
2023/01/07 04:45:37;;;;;;;1.80;1.00;;;;;;;;;;5024658;28;20053;-77
2023/01/07 04:48:03;;;;;;;1.48;0.80;;;;;;;;;;5026779;28;20071;-77
2023/01/07 04:50:30;;;;;;;1.05;0.80;;;;;;;;;;5027616;28;20049;-77
2023/01/07 04:52:56;;;;;;;1.88;0.70;;;;;;;;;;5008675;28;20060;-77
2023/01/07 04:55:23;;;;;;;2.72;0.90;;;;;;;;;;5027008;28;20423;-77
2023/01/07 04:57:49;;;;;;;1.00;0.88;;;;;;;;;;5028300;28;20494;-77
2023/01/07 05:00:15;;;;;;;1.00;0.75;;;;;;;;;;5024917;28;20045;-78
2023/01/07 05:02:42;;;;;;;1.35;0.80;;;;;;;;;;5007473;28;20635;-77
2023/01/07 05:05:08;;;;;;;1.30;1.10;;;;;;;;;;5020693;28;20596;-78
2023/01/07 05:07:35;;;;;;;1.30;0.90;;;;;;;;;;5019482;28;20060;-77
2023/01/07 05:10:02;;;;;;;1.33;0.90;;;;;;;;;;5018403;28;20053;-77
2023/01/07 05:12:34;;;;;;;1.15;0.85;;;;;;;;;;5025338;28;20109;-76
2023/01/07 05:15:04;;;;;;;1.15;0.80;;;;;;;;;;5027476;28;20037;-77
2023/01/07 05:17:30;;;;;;;4.70;0.88;;;;;;;;;;5027540;28;20073;-78
2023/01/07 05:19:57;;;;;;;0.98;0.77;;;;;;;;;;5024099;28;20532;-77
2023/01/07 05:22:23;;;;;;;1.30;0.90;;;;;;;;;;5027192;28;20417;-77
2023/01/07 05:24:50;;;;;;;1.90;0.90;;;;;;;;;;5027086;28;20057;-75
2023/01/07 05:27:16;;;;;;;1.55;1.15;;;;;;;;;;5015418;28;20046;-79
2023/01/07 05:29:42;;;;;;;1.67;1.00;;;;;;;;;;5015556;28;20053;-77
2023/01/07 05:32:09;;;;;;;1.35;0.93;;;;;;;;;;5027031;28;20136;-78
2023/01/07 05:34:35;;;;;;;1.75;1.10;;;;;;;;;;5007591;28;20277;-77
2023/01/07 05:37:02;;;;;;;3.00;1.17;;;;;;;;;;5026937;28;20056;-77
2023/01/07 05:39:28;;;;;;;1.35;0.90;;;;;;;;;;5021580;28;20203;-77
2023/01/07 05:41:55;;;;;;;1.83;1.10;;;;;;;;;;5026306;28;20057;-77
2023/01/07 05:44:21;;;;;;;1.20;0.90;;;;;;;;;;5022329;28;20133;-76
2023/01/07 05:46:47;;;;;;;1.45;1.10;;;;;;;;;;5007291;28;20498;-76
2023/01/07 05:49:14;;;;;;;1.40;0.93;;;;;;;;;;5019396;28;20075;-77
2023/01/07 05:51:40;;;;;;;1.42;1.00;;;;;;;;;;5026410;28;20391;-75
2023/01/07 05:54:07;;;;;;;1.55;1.00;;;;;;;;;;5026569;28;20055;-77
2023/01/07 05:56:34;;;;;;;1.02;0.80;;;;;;;;;;5022533;28;20117;-77
2023/01/07 05:59:00;;;;;;;1.80;1.10;;;;;;;;;;4991094;28;20419;-77
2023/01/07 06:01:26;;;;;;;1.10;0.80;;;;;;;;;;5026015;28;20465;-77
2023/01/07 06:03:53;;;;;;;2.92;0.93;;;;;;;;;;5007911;28;20168;-77
2023/01/07 06:06:19;;;;;;;1.15;0.90;;;;;;;;;;5028590;28;20053;-76
2023/01/07 06:08:46;;;;;;;1.33;0.95;;;;;;;;;;5021915;28;20125;-77
2023/01/07 06:11:12;;;;;;;1.02;0.70;;;;;;;;;;5030865;28;20057;-77
2023/01/07 06:13:39;;;;;;;1.55;0.90;;;;;;;;;;5027252;28;20054;-77
2023/01/07 06:16:07;;;;;;;1.02;0.70;;;;;;;;;;5021855;28;20049;-77
2023/01/07 06:18:34;;;;;;;1.30;0.93;;;;;;;;;;5005590;28;20379;-76
2023/01/07 06:21:00;;;;;;;1.33;0.80;;;;;;;;;;5017798;28;20045;-76
2023/01/07 06:23:27;;;;;;;0.88;0.70;;;;;;;;;;5005984;28;20057;-77
2023/01/07 06:25:53;;;;;;;1.75;0.80;;;;;;;;;;5022991;28;20517;-76
2023/01/07 06:28:20;;;;;;;1.58;0.90;;;;;;;;;;5023035;28;20775;-76
2023/01/07 06:30:46;;;;;;;1.05;0.70;;;;;;;;;;5016486;28;20080;-76
2023/01/07 06:33:13;;;;;;;1.33;0.57;;;;;;;;;;5022590;28;20049;-75
2023/01/07 06:35:43;;;;;;;2.25;0.63;;;;;;;;;;5024684;28;20053;-79
2023/01/07 06:38:09;;;;;;;1.45;0.63;;;;;;;;;;5025294;28;20049;-78
2023/01/07 06:40:36;;;;;;;0.80;0.50;;;;;;;;;;5006183;28;20501;-77
2023/01/07 06:43:02;;;;;;;0.85;0.68;;;;;;;;;;5006754;28;20278;-78
2023/01/07 06:45:29;;;;;;;0.68;0.68;;;;;;;;;;5013764;28;20057;-78
2023/01/07 06:47:57;;;;;;;0.93;0.60;;;;;;;;;;5024377;28;20092;-78
2023/01/07 06:50:24;;;;;;;1.23;0.50;;;;;;;;;;5030474;28;20092;-78
2023/01/07 06:52:50;;;;;;;0.60;0.45;;;;;;;;;;4992289;28;20052;-78
2023/01/07 06:55:17;;;;;;;0.50;0.50;;;;;;;;;;5006322;28;20045;-78
2023/01/07 06:57:43;;;;;;;0.90;0.52;;;;;;;;;;5024912;28;20060;-79
2023/01/07 07:00:10;;;;;;;0.77;0.47;;;;;;;;;;5026898;28;20072;-79
2023/01/07 07:02:36;;;;;;;2.70;0.50;;;;;;;;;;5030249;28;20065;-77
2023/01/07 07:05:03;;;;;;;0.68;0.45;;;;;;;;;;5013379;28;20064;-76
2023/01/07 07:07:29;;;;;;;0.75;0.50;;;;;;;;;;4985134;28;20073;-77
2023/01/07 07:09:56;;;;;;;0.90;0.52;;;;;;;;;;5017003;28;20068;-76
2023/01/07 07:12:22;;;;;;;1.05;0.55;;;;;;;;;;5007517;28;20462;-74
2023/01/07 07:14:49;;;;;;;1.58;0.77;;;;;;;;;;5020493;28;20053;-75
2023/01/07 07:17:15;;;;;;;0.90;0.57;;;;;;;;;;5002438;28;20050;-75
2023/01/07 07:19:41;;;;;;;1.90;0.80;;;;;;;;;;5001536;28;20046;-75
2023/01/07 07:22:08;;;;;;;1.17;0.73;;;;;;;;;;5015229;28;20473;-76
2023/01/07 07:24:34;;;;;;;1.40;0.70;;;;;;;;;;5023040;28;20442;-77
2023/01/07 07:27:01;;;;;;;2.55;0.77;;;;;;;;;;5012176;28;20533;-78
2023/01/07 07:29:27;;;;;;;1.77;0.73;;;;;;;;;;5003051;28;20058;-77
2023/01/07 07:31:54;;;;;;;0.95;0.70;;;;;;;;;;5016629;28;20933;-77
2023/01/07 07:34:20;;;;;;;2.08;0.70;;;;;;;;;;5003404;28;20263;-77
2023/01/07 07:36:46;;;;;;;1.05;0.60;;;;;;;;;;5017547;28;20059;-77
2023/01/07 07:39:13;;;;;;;0.95;0.60;;;;;;;;;;5024243;28;20080;-78
2023/01/07 07:41:39;;;;;;;1.77;0.60;;;;;;;;;;5025465;28;20081;-76
2023/01/07 07:44:06;;;;;;;2.90;0.60;;;;;;;;;;5013478;28;20061;-76
2023/01/07 07:46:32;;;;;;;0.90;0.60;;;;;;;;;;5020037;28;20054;-75
2023/01/07 07:48:59;;;;;;;0.50;0.43;;;;;;;;;;5025785;28;20548;-77
2023/01/07 07:51:25;;;;;;;1.35;0.80;;;;;;;;;;5008100;28;20057;-76
2023/01/07 07:53:51;;;;;;;1.60;1.00;;;;;;;;;;5019646;28;20050;-77
2023/01/07 07:56:18;;;;;;;1.17;0.70;;;;;;;;;;4998315;28;20172;-78
2023/01/07 07:58:44;;;;;;;1.42;0.80;;;;;;;;;;5024801;28;20049;-77
2023/01/07 08:01:11;;;;;;;1.10;0.93;;;;;;;;;;5025655;28;20502;-78
2023/01/07 08:03:37;;;;;;;1.65;0.70;;;;;;;;;;5031950;28;20410;-77
2023/01/07 08:06:04;;;;;;;1.00;0.65;;;;;;;;;;5028616;28;20049;-76
2023/01/07 08:08:30;;;;;;;1.23;0.60;;;;;;;;;;5006599;28;20134;-77
2023/01/07 08:10:57;;;;;;;1.80;0.80;;;;;;;;;;5027793;28;20368;-78
2023/01/07 08:13:24;;;;;;;1.45;0.70;;;;;;;;;;5004705;28;20056;-77
2023/01/07 08:15:51;;;;;;;1.48;0.70;;;;;;;;;;5023190;28;20152;-77
2023/01/07 08:18:18;;;;;;;0.60;0.43;;;;;;;;;;5014624;28;20050;-77
2023/01/07 08:20:45;;;;;;;1.13;0.50;;;;;;;;;;5024422;28;20634;-77
2023/01/07 08:23:11;;;;;;;1.00;0.57;;;;;;;;;;5023660;28;20056;-77
2023/01/07 08:25:38;;;;;;;1.50;0.50;;;;;;;;;;5023604;28;20571;-76
2023/01/07 08:28:04;;;;;;;2.38;0.63;;;;;;;;;;5025733;28;20145;-77
2023/01/07 08:30:31;;;;;;;0.95;0.60;;;;;;;;;;5027097;28;20088;-78
2023/01/07 08:32:57;;;;;;;1.58;0.70;;;;;;;;;;5005844;28;20046;-78
2023/01/07 08:35:24;;;;;;;1.80;0.60;;;;;;;;;;5028164;28;20049;-77
2023/01/07 08:37:50;;;;;;;1.23;0.68;;;;;;;;;;5028028;28;20113;-77
2023/01/07 08:40:17;;;;;;;1.15;0.70;;;;;;;;;;5024563;28;20430;-78
2023/01/07 08:42:43;;;;;;;1.50;0.43;;;;;;;;;;5026698;28;20079;-77
2023/01/07 08:45:10;;;;;;;0.40;0.40;;;;;;;;;;5028190;28;20064;-80
2023/01/07 08:47:37;;;;;;;1.75;0.52;;;;;;;;;;5025519;28;20060;-78
2023/01/07 08:50:03;;;;;;;0.65;0.38;;;;;;;;;;5031772;28;20066;-79
2023/01/07 08:52:30;;;;;;;1.15;0.50;;;;;;;;;;5026467;28;20144;-78
2023/01/07 08:54:56;;;;;;;1.70;0.57;;;;;;;;;;5009014;28;20343;-77
2023/01/07 08:57:23;;;;;;;1.58;0.40;;;;;;;;;;5027770;28;20076;-79
2023/01/07 08:59:49;;;;;;;0.98;0.50;;;;;;;;;;5028763;28;20270;-79
2023/01/07 09:02:16;;;;;;;0.50;0.40;;;;;;;;;;5025500;28;20085;-79
2023/01/07 09:04:43;;;;;;;0.75;0.45;;;;;;;;;;5027834;28;20055;-79
2023/01/07 09:07:10;;;;;;;1.27;0.40;;;;;;;;;;5028175;28;20524;-79
2023/01/07 09:09:36;;;;;;;1.35;0.30;;;;;;;;;;5026160;28;20061;-77
2023/01/07 09:12:03;;;;;;;0.47;0.40;;;;;;;;;;5024407;28;20128;-79
2023/01/07 09:14:29;;;;;;;0.30;0.30;;;;;;;;;;5007877;28;20046;-78
2023/01/07 09:16:56;;;;;;;0.17;0.15;;;;;;;;;;5025291;28;20042;-78
2023/01/07 09:19:22;;;;;;;0.50;0.40;;;;;;;;;;5025508;28;20045;-76
2023/01/07 09:21:50;;;;;;;1.45;0.20;;;;;;;;;;5020304;28;20049;-77
2023/01/07 09:24:16;;;;;;;0.47;0.28;;;;;;;;;;5026841;28;20060;-78
2023/01/07 09:26:43;;;;;;;0.15;0.15;;;;;;;;;;5011587;28;20125;-78
2023/01/07 09:29:09;;;;;;;0.50;0.28;;;;;;;;;;5017403;28;20341;-78
2023/01/07 09:31:36;;;;;;;0.32;0.25;;;;;;;;;;5016627;28;20128;-78
2023/01/07 09:34:03;;;;;;;0.43;0.20;;;;;;;;;;5034248;28;20053;-78
2023/01/07 09:36:29;;;;;;;0.90;0.28;;;;;;;;;;5040300;28;20136;-78
2023/01/07 09:38:56;;;;;;;0.30;0.30;;;;;;;;;;5031975;28;20103;-78
2023/01/07 09:41:35;;;;;;;1.85;0.40;;;;;;;;;;5034953;28;20056;-77
2023/01/07 09:44:08;;;;;;;0.90;0.20;;;;;;;;;;5011046;28;20059;-77
2023/01/07 09:46:35;;;;;;;0.40;0.30;;;;;;;;;;5020259;28;20081;-76
2023/01/07 09:49:02;;;;;;;0.40;0.30;;;;;;;;;;5026853;28;20053;-77
2023/01/07 09:51:37;;;;;;;0.38;0.30;;;;;;;;;;5033166;28;20073;-78
2023/01/07 09:54:04;;;;;;;0.75;0.50;;;;;;;;;;5026428;28;20045;-78
2023/01/07 09:56:35;;;;;;;0.40;0.30;;;;;;;;;;5026243;28;20091;-78
2023/01/07 09:59:03;;;;;;;0.50;0.40;;;;;;;;;;5008664;28;20053;-75
2023/01/07 10:01:29;;;;;;;0.55;0.40;;;;;;;;;;5026233;28;20406;-77
2023/01/07 10:04:25;;;;;;;1.25;0.50;;;;;;;;;;5035429;28;20084;-81
2023/01/07 10:06:55;;;;;;;1.73;0.30;;;;;;;;;;4943884;28;20221;-79
2023/01/07 10:09:28;;;;;;;1.85;0.60;;;;;;;;;;5016269;28;20137;-79
2023/01/07 10:11:59;;;;;;;1.42;0.50;;;;;;;;;;5030541;28;20038;-78
2023/01/07 10:14:28;;;;;;;0.80;0.40;;;;;;;;;;5006944;28;20045;-81
2023/01/07 10:17:30;;;;;;;0.73;0.43;;;;;;;;;;5022780;28;20061;-79
2023/01/07 10:20:14;;;;;;;1.02;0.50;;;;;;;;;;4966466;28;20060;-76
2023/01/07 10:22:49;;;;;;;1.50;0.50;;;;;;;;;;5023897;28;20052;-79
2023/01/07 10:25:24;;;;;;;0.63;0.50;;;;;;;;;;5023507;28;20045;-78
2023/01/07 10:27:53;;;;;;;1.05;0.50;;;;;;;;;;5025422;28;20144;-79
2023/01/07 10:30:24;;;;;;;1.73;0.55;;;;;;;;;;5025323;28;20046;-78
2023/01/07 10:33:10;;;;;;;1.95;0.70;;;;;;;;;;5008666;28;20042;-79
2023/01/07 10:35:38;;;;;;;1.23;0.50;;;;;;;;;;5027411;28;20145;-79
2023/01/07 10:38:05;;;;;;;1.88;0.63;;;;;;;;;;5026984;28;20045;-79
2023/01/07 10:40:43;;;;;;;1.00;0.70;;;;;;;;;;5027296;28;20049;-79
2023/01/07 10:43:26;;;;;;;4.10;1.90;;;;;;;;;;5017275;28;20057;-80
2023/01/07 10:45:59;;;;;;;1.30;0.90;;;;;;;;;;5010598;28;20053;-80
2023/01/07 10:48:25;;;;;;;2.17;1.38;;;;;;;;;;5025280;28;20073;-79
2023/01/07 10:51:07;;;;;;;2.55;1.50;;;;;;;;;;5028154;28;20046;-80
2023/01/07 10:53:53;;;;;;;1.40;0.93;;;;;;;;;;5025420;28;20056;-80
2023/01/07 10:56:29;;;;;;;1.30;0.85;;;;;;;;;;5022461;28;20045;-79
2023/01/07 10:58:56;;;;;;;3.83;1.70;;;;;;;;;;5004630;28;20127;-79
2023/01/07 11:01:27;;;;;;;1.15;0.88;;;;;;;;;;5025978;28;20128;-78
2023/01/07 11:03:55;;;;;;;1.50;1.00;;;;;;;;;;5019644;28;20390;-78
2023/01/07 11:06:28;;;;;;;2.03;1.15;;;;;;;;;;5006329;28;20059;-78
2023/01/07 11:08:54;;;;;;;2.92;1.33;;;;;;;;;;5005237;28;20479;-77
2023/01/07 11:11:26;;;;;;;1.80;0.70;;;;;;;;;;5023877;28;20053;-77
2023/01/07 11:13:58;;;;;;;2.38;0.70;;;;;;;;;;5022315;28;20041;-78
2023/01/07 11:16:27;;;;;;;2.03;1.10;;;;;;;;;;5028093;28;20484;-77
2023/01/07 11:19:07;;;;;;;4.18;1.80;;;;;;;;;;5031222;28;20045;-75
2023/01/07 11:21:38;;;;;;;2.50;1.40;;;;;;;;;;5010104;28;20045;-78
2023/01/07 11:24:18;;;;;;;4.18;1.92;;;;;;;;;;5008171;28;20053;-78
2023/01/07 11:26:45;;;;;;;;;;;;;;;;;;5024376;28;20053;-77
2023/01/07 11:29:20;;;;;;;1.98;0.90;;;;;;;;;;5010832;28;19925;-78
2023/01/07 11:31:46;;;;;;;1.05;0.70;;;;;;;;;;5027284;28;20553;-77
2023/01/07 11:34:24;;;;;;;0.70;0.50;;;;;;;;;;5009632;28;20057;-76
2023/01/07 11:36:51;;;;;;;1.15;0.68;;;;;;;;;;5010506;28;20509;-79
2023/01/07 11:39:22;;;;;;;1.00;0.70;;;;;;;;;;5027973;28;20045;-78
2023/01/07 11:41:56;;;;;;;1.80;0.80;;;;;;;;;;5029729;28;20050;-78
2023/01/07 11:44:23;;;;;;;0.98;0.60;;;;;;;;;;5022271;28;20071;-76
2023/01/07 11:46:50;;;;;;;1.63;0.65;;;;;;;;;;5009180;28;20297;-78
2023/01/07 11:49:22;;;;;;;1.15;0.70;;;;;;;;;;5025684;28;20071;-78
2023/01/07 11:51:48;;;;;;;1.63;0.82;;;;;;;;;;5021937;28;20148;-77
2023/01/07 11:54:19;;;;;;;2.47;0.60;;;;;;;;;;5027597;28;20051;-78
2023/01/07 11:56:46;;;;;;;1.20;0.63;;;;;;;;;;5024563;28;20053;-78
2023/01/07 11:59:15;;;;;;;0.82;0.60;;;;;;;;;;5024622;28;20148;-77
2023/01/07 12:01:45;;;;;;;2.58;0.85;;;;;;;;;;5007434;28;20152;-75
2023/01/07 12:04:17;;;;;;;0.93;0.68;;;;;;;;;;5014145;28;20057;-76
2023/01/07 12:06:45;;;;;;;1.15;0.60;;;;;;;;;;5026329;28;20076;-77
2023/01/07 12:09:17;;;;;;;1.40;0.80;;;;;;;;;;5027653;28;20500;-77
2023/01/07 12:11:44;;;;;;;1.02;0.68;;;;;;;;;;5018968;28;20399;-77
2023/01/07 12:14:30;;;;;;;1.60;0.80;;;;;;;;;;5009249;28;20055;-75
2023/01/07 12:17:06;;;;;;;2.47;0.75;;;;;;;;;;5027749;28;20058;-78
2023/01/07 12:20:02;;;;;;;1.60;0.60;;;;;;;;;;5040128;28;20113;-78
2023/01/07 12:22:28;;;;;;;1.83;0.98;;;;;;;;;;4959252;28;20047;-77
2023/01/07 12:25:04;;;;;;;2.13;0.98;;;;;;;;;;5029996;28;20356;-78
2023/01/07 12:27:42;;;;;;;1.08;0.70;;;;;;;;;;5035052;28;20117;-78
2023/01/07 12:30:23;;;;;;;2.25;0.88;;;;;;;;;;5035784;28;20049;-76
2023/01/07 12:33:10;;;;;;;0.80;0.60;;;;;;;;;;5031960;28;20450;-77
2023/01/07 12:35:38;;;;;;;1.13;0.80;;;;;;;;;;5028931;28;20075;-77
2023/01/07 12:38:04;;;;;;;1.10;0.70;;;;;;;;;;5014682;28;20055;-78
2023/01/07 12:40:34;;;;;;;1.70;0.85;;;;;;;;;;5032215;28;20443;-77
2023/01/07 12:43:10;;;;;;;1.05;0.57;;;;;;;;;;5013797;28;20049;-78
2023/01/07 12:45:46;;;;;;;1.23;0.57;;;;;;;;;;5030390;28;20049;-78
2023/01/07 12:48:16;;;;;;;0.55;0.50;;;;;;;;;;5022883;28;20506;-77
2023/01/07 12:50:45;;;;;;;0.88;0.60;;;;;;;;;;5023459;28;20114;-78
2023/01/07 12:53:35;;;;;;;1.13;0.70;;;;;;;;;;5022676;28;20057;-76
2023/01/07 12:56:22;;;;;;;0.90;0.73;;;;;;;;;;5013599;28;20057;-76
2023/01/07 12:58:58;;;;;;;0.63;0.40;;;;;;;;;;5008083;28;20152;-77
2023/01/07 13:01:43;;;;;;;1.17;0.52;;;;;;;;;;5010059;28;20047;-77
2023/01/07 13:04:10;;;;;;;1.77;0.70;;;;;;;;;;5023804;28;20145;-78
2023/01/07 13:06:51;;;;;;;1.00;0.50;;;;;;;;;;5025950;28;20410;-77
2023/01/07 13:09:27;;;;;;;0.95;0.70;;;;;;;;;;5008097;28;20152;-77
2023/01/07 13:15:08;;;;;;;1.00;0.68;;;;;;;;;;5025542;28;20053;-77
2023/01/07 13:17:35;;;;;;;1.80;1.00;;;;;;;;;;5025725;28;20061;-77
2023/01/07 13:20:01;;;;;;;2.03;1.00;;;;;;;;;;5024952;28;20053;-77
2023/01/07 13:22:30;;;;;;;1.88;0.80;;;;;;;;;;5027165;28;20056;-77
2023/01/07 13:25:11;;;;;;;1.58;0.90;;;;;;;;;;5001515;28;20133;-77
2023/01/07 13:27:56;;;;;;;4.15;1.20;;;;;;;;;;5011352;28;20137;-77
2023/01/07 13:30:48;;;;;;;3.90;2.13;;;;;;;;;;5025339;28;20049;-77
2023/01/07 13:33:15;;;;;;;15.43;6.55;;;;;;;;;;5032782;28;20330;-77
2023/01/07 13:35:41;;;;;;;10.38;4.68;;;;;;;;;;5026019;28;20083;-77
2023/01/07 13:38:13;;;;;;;9.85;4.10;;;;;;;;;;5008814;28;20050;-77
2023/01/07 13:40:46;;;;;;;3.90;1.95;;;;;;;;;;5026285;28;20057;-75
2023/01/07 13:43:19;;;;;;;4.22;2.15;;;;;;;;;;5001266;28;20061;-76
2023/01/07 13:45:56;;;;;;;3.78;1.80;;;;;;;;;;5025060;28;20057;-77
2023/01/07 13:48:24;;;;;;;2.97;1.75;;;;;;;;;;5013831;28;20056;-76
2023/01/07 13:50:55;;;;;;;1.48;1.17;;;;;;;;;;5024829;28;20112;-77
2023/01/07 13:53:24;;;;;;;3.42;1.20;;;;;;;;;;5034263;28;20053;-77
2023/01/07 13:55:52;;;;;;;1.88;1.40;;;;;;;;;;5025902;28;20049;-77
2023/01/07 13:58:30;;;;;;;2.80;1.27;;;;;;;;;;5025944;28;20056;-77
2023/01/07 14:01:10;;;;;;;1.73;1.20;;;;;;;;;;5025664;28;20059;-77
2023/01/07 14:03:43;;;;;;;1.50;1.20;;;;;;;;;;5025201;28;20060;-76
2023/01/07 14:06:19;;;;;;;1.20;1.08;;;;;;;;;;5017175;28;20524;-77
2023/01/07 14:08:49;;;;;;;1.80;1.40;;;;;;;;;;5017936;28;20049;-77
2023/01/07 14:11:16;;;;;;;3.72;1.30;;;;;;;;;;5026540;28;20049;-77
2023/01/07 14:13:53;;;;;;;2.58;1.15;;;;;;;;;;5025685;28;20068;-77
2023/01/07 14:16:25;;;;;;;1.70;1.00;;;;;;;;;;5007274;28;20060;-78
2023/01/07 14:18:58;;;;;;;1.60;1.20;;;;;;;;;;5014087;28;20100;-77
2023/01/07 14:21:28;;;;;;;1.80;0.90;;;;;;;;;;5006806;28;20046;-78
2023/01/07 14:24:00;;;;;;;2.60;0.90;;;;;;;;;;5014950;28;20134;-77
2023/01/07 14:26:27;;;;;;;1.38;0.90;;;;;;;;;;5008289;28;20316;-78
2023/01/07 14:29:05;;;;;;;2.33;1.20;;;;;;;;;;5026463;28;20574;-79
2023/01/07 14:31:32;;;;;;;1.30;0.90;;;;;;;;;;5027778;28;20061;-78
2023/01/07 14:34:06;;;;;;;1.15;0.90;;;;;;;;;;5032581;28;20057;-78
2023/01/07 14:36:52;;;;;;;3.25;1.23;;;;;;;;;;5036598;28;20045;-78
2023/01/07 14:39:29;;;;;;;1.67;1.00;;;;;;;;;;5033908;28;20552;-78
2023/01/07 14:42:25;;;;;;;1.80;1.20;;;;;;;;;;5009134;28;20060;-79
2023/01/07 14:44:51;;;;;;;1.20;1.10;;;;;;;;;;4995915;28;20966;-78
2023/01/07 14:47:36;;;;;;;2.17;1.33;;;;;;;;;;5008915;28;20141;-78
2023/01/07 14:50:17;;;;;;;3.08;1.63;;;;;;;;;;5010099;28;20079;-77
2023/01/07 14:53:04;;;;;;;2.80;1.60;;;;;;;;;;5022890;28;20053;-77
2023/01/07 14:55:43;;;;;;;2.53;1.70;;;;;;;;;;5018927;28;20205;-77
2023/01/07 14:58:31;;;;;;;2.45;1.95;;;;;;;;;;5029029;28;20089;-77
2023/01/07 15:01:12;;;;;;;2.90;1.73;;;;;;;;;;5019645;28;20506;-74
2023/01/07 15:03:42;;;;;;;2.60;1.52;;;;;;;;;;5025747;28;20045;-76
2023/01/07 15:06:22;;;;;;;2.15;1.40;;;;;;;;;;5032042;28;20058;-78
2023/01/07 15:17:14;;;;;;;4.25;2.10;;;;;;;;;;5028625;28;20049;-77